sensor_id;sensor_type;location;lat;lon;timestamp;P1;durP1;ratioP1;P2;durP2;ratioP2
23290;SDS011;11814;44.686;10.842;2023-12-22T00:00:27;76.90;;;51.08;;
23290;SDS011;11814;44.686;10.842;2023-12-22T00:02:52;71.22;;;47.80;;
23290;SDS011;11814;44.686;10.842;2023-12-22T00:05:18;70.22;;;46.50;;
23290;SDS011;11814;44.686;10.842;2023-12-22T00:07:43;71.82;;;45.85;;
23290;SDS011;11814;44.686;10.842;2023-12-22T00:10:09;68.82;;;44.88;;
23290;SDS011;11814;44.686;10.842;2023-12-22T00:12:35;65.53;;;43.45;;
23290;SDS011;11814;44.686;10.842;2023-12-22T00:15:00;59.63;;;39.53;;
23290;SDS011;11814;44.686;10.842;2023-12-22T00:17:26;53.40;;;38.47;;
23290;SDS011;11814;44.686;10.842;2023-12-22T00:19:51;59.50;;;39.20;;
23290;SDS011;11814;44.686;10.842;2023-12-22T00:22:17;55.17;;;36.63;;
23290;SDS011;11814;44.686;10.842;2023-12-22T00:24:43;60.13;;;37.42;;
23290;SDS011;11814;44.686;10.842;2023-12-22T00:27:08;57.83;;;38.28;;
23290;SDS011;11814;44.686;10.842;2023-12-22T00:29:34;56.85;;;36.13;;
23290;SDS011;11814;44.686;10.842;2023-12-22T00:32:02;57.80;;;37.30;;
23290;SDS011;11814;44.686;10.842;2023-12-22T00:34:27;58.22;;;36.88;;
23290;SDS011;11814;44.686;10.842;2023-12-22T00:36:53;56.90;;;35.03;;
23290;SDS011;11814;44.686;10.842;2023-12-22T00:39:19;54.88;;;35.45;;
23290;SDS011;11814;44.686;10.842;2023-12-22T00:41:44;57.00;;;37.35;;
23290;SDS011;11814;44.686;10.842;2023-12-22T00:44:10;61.20;;;38.45;;
23290;SDS011;11814;44.686;10.842;2023-12-22T00:46:36;60.40;;;37.83;;
23290;SDS011;11814;44.686;10.842;2023-12-22T00:49:02;59.38;;;37.30;;
23290;SDS011;11814;44.686;10.842;2023-12-22T00:51:27;59.10;;;35.25;;
23290;SDS011;11814;44.686;10.842;2023-12-22T00:53:53;58.75;;;37.88;;
23290;SDS011;11814;44.686;10.842;2023-12-22T00:56:19;58.95;;;35.17;;
23290;SDS011;11814;44.686;10.842;2023-12-22T00:58:44;55.22;;;34.88;;
23290;SDS011;11814;44.686;10.842;2023-12-22T01:01:10;63.65;;;37.83;;
23290;SDS011;11814;44.686;10.842;2023-12-22T01:03:35;56.88;;;36.00;;
23290;SDS011;11814;44.686;10.842;2023-12-22T01:06:01;61.15;;;36.88;;
23290;SDS011;11814;44.686;10.842;2023-12-22T01:08:27;54.13;;;35.00;;
23290;SDS011;11814;44.686;10.842;2023-12-22T01:10:52;59.25;;;37.47;;
23290;SDS011;11814;44.686;10.842;2023-12-22T01:13:18;58.00;;;36.88;;
23290;SDS011;11814;44.686;10.842;2023-12-22T01:15:43;60.60;;;33.15;;
23290;SDS011;11814;44.686;10.842;2023-12-22T01:18:10;51.25;;;33.25;;
23290;SDS011;11814;44.686;10.842;2023-12-22T01:20:36;54.47;;;35.53;;
23290;SDS011;11814;44.686;10.842;2023-12-22T01:23:01;54.40;;;34.70;;
23290;SDS011;11814;44.686;10.842;2023-12-22T01:25:27;60.80;;;35.10;;
23290;SDS011;11814;44.686;10.842;2023-12-22T01:27:53;55.40;;;34.53;;
23290;SDS011;11814;44.686;10.842;2023-12-22T01:30:18;59.97;;;38.20;;
23290;SDS011;11814;44.686;10.842;2023-12-22T01:32:44;56.17;;;36.40;;
23290;SDS011;11814;44.686;10.842;2023-12-22T01:35:10;60.92;;;37.22;;
23290;SDS011;11814;44.686;10.842;2023-12-22T01:37:36;53.10;;;34.50;;
23290;SDS011;11814;44.686;10.842;2023-12-22T01:40:02;58.75;;;36.20;;
23290;SDS011;11814;44.686;10.842;2023-12-22T01:42:28;56.42;;;35.63;;
23290;SDS011;11814;44.686;10.842;2023-12-22T01:44:54;57.38;;;35.30;;
23290;SDS011;11814;44.686;10.842;2023-12-22T01:47:20;55.58;;;34.80;;
23290;SDS011;11814;44.686;10.842;2023-12-22T01:49:46;56.10;;;36.05;;
23290;SDS011;11814;44.686;10.842;2023-12-22T01:52:13;58.90;;;37.15;;
23290;SDS011;11814;44.686;10.842;2023-12-22T01:54:39;59.10;;;37.42;;
23290;SDS011;11814;44.686;10.842;2023-12-22T01:57:05;60.60;;;36.90;;
23290;SDS011;11814;44.686;10.842;2023-12-22T01:59:31;55.53;;;34.13;;
23290;SDS011;11814;44.686;10.842;2023-12-22T02:02:00;57.75;;;34.45;;
23290;SDS011;11814;44.686;10.842;2023-12-22T02:04:28;56.75;;;35.63;;
23290;SDS011;11814;44.686;10.842;2023-12-22T02:06:57;54.28;;;35.22;;
23290;SDS011;11814;44.686;10.842;2023-12-22T02:09:25;58.75;;;34.25;;
23290;SDS011;11814;44.686;10.842;2023-12-22T02:11:51;58.85;;;34.55;;
23290;SDS011;11814;44.686;10.842;2023-12-22T02:14:17;49.85;;;32.97;;
23290;SDS011;11814;44.686;10.842;2023-12-22T02:16:45;55.55;;;33.58;;
23290;SDS011;11814;44.686;10.842;2023-12-22T02:22:02;52.08;;;32.88;;
23290;SDS011;11814;44.686;10.842;2023-12-22T02:24:32;51.97;;;31.67;;
23290;SDS011;11814;44.686;10.842;2023-12-22T02:27:01;50.22;;;31.05;;
23290;SDS011;11814;44.686;10.842;2023-12-22T02:29:51;49.33;;;30.08;;
23290;SDS011;11814;44.686;10.842;2023-12-22T02:32:31;49.75;;;30.63;;
23290;SDS011;11814;44.686;10.842;2023-12-22T02:35:00;55.42;;;32.63;;
23290;SDS011;11814;44.686;10.842;2023-12-22T02:37:30;52.75;;;30.60;;
23290;SDS011;11814;44.686;10.842;2023-12-22T02:40:00;49.70;;;31.67;;
23290;SDS011;11814;44.686;10.842;2023-12-22T02:42:27;49.42;;;32.63;;
23290;SDS011;11814;44.686;10.842;2023-12-22T02:44:58;52.40;;;32.97;;
23290;SDS011;11814;44.686;10.842;2023-12-22T02:47:25;52.53;;;31.98;;
23290;SDS011;11814;44.686;10.842;2023-12-22T02:49:52;50.92;;;30.75;;
23290;SDS011;11814;44.686;10.842;2023-12-22T02:52:18;50.90;;;32.22;;
23290;SDS011;11814;44.686;10.842;2023-12-22T02:54:44;53.15;;;32.05;;
23290;SDS011;11814;44.686;10.842;2023-12-22T02:57:12;48.47;;;29.00;;
23290;SDS011;11814;44.686;10.842;2023-12-22T02:59:38;45.80;;;29.75;;
23290;SDS011;11814;44.686;10.842;2023-12-22T03:02:04;48.97;;;29.65;;
23290;SDS011;11814;44.686;10.842;2023-12-22T03:04:30;47.33;;;30.27;;
23290;SDS011;11814;44.686;10.842;2023-12-22T03:06:55;42.03;;;27.90;;
23290;SDS011;11814;44.686;10.842;2023-12-22T03:09:21;46.85;;;29.42;;
23290;SDS011;11814;44.686;10.842;2023-12-22T03:11:47;48.15;;;28.17;;
23290;SDS011;11814;44.686;10.842;2023-12-22T03:14:13;43.53;;;25.88;;
23290;SDS011;11814;44.686;10.842;2023-12-22T03:16:39;43.58;;;26.27;;
23290;SDS011;11814;44.686;10.842;2023-12-22T03:19:06;36.67;;;22.90;;
23290;SDS011;11814;44.686;10.842;2023-12-22T03:21:32;36.50;;;21.17;;
23290;SDS011;11814;44.686;10.842;2023-12-22T03:23:57;35.10;;;20.25;;
23290;SDS011;11814;44.686;10.842;2023-12-22T03:26:23;32.13;;;19.05;;
23290;SDS011;11814;44.686;10.842;2023-12-22T03:28:51;33.97;;;17.65;;
23290;SDS011;11814;44.686;10.842;2023-12-22T03:31:16;28.67;;;17.80;;
23290;SDS011;11814;44.686;10.842;2023-12-22T03:33:45;31.17;;;17.38;;
23290;SDS011;11814;44.686;10.842;2023-12-22T03:36:10;23.90;;;14.02;;
23290;SDS011;11814;44.686;10.842;2023-12-22T03:38:36;22.90;;;14.20;;
23290;SDS011;11814;44.686;10.842;2023-12-22T03:41:01;19.20;;;11.73;;
23290;SDS011;11814;44.686;10.842;2023-12-22T03:43:27;18.30;;;9.40;;
23290;SDS011;11814;44.686;10.842;2023-12-22T03:45:54;13.13;;;7.82;;
23290;SDS011;11814;44.686;10.842;2023-12-22T03:48:20;8.10;;;5.10;;
23290;SDS011;11814;44.686;10.842;2023-12-22T03:50:46;7.15;;;3.50;;
23290;SDS011;11814;44.686;10.842;2023-12-22T03:53:11;5.63;;;3.17;;
23290;SDS011;11814;44.686;10.842;2023-12-22T03:55:37;4.50;;;2.80;;
23290;SDS011;11814;44.686;10.842;2023-12-22T03:58:02;4.32;;;2.30;;
23290;SDS011;11814;44.686;10.842;2023-12-22T04:00:29;4.60;;;1.92;;
23290;SDS011;11814;44.686;10.842;2023-12-22T04:02:55;4.50;;;1.83;;
23290;SDS011;11814;44.686;10.842;2023-12-22T04:05:21;3.40;;;1.73;;
23290;SDS011;11814;44.686;10.842;2023-12-22T04:07:46;3.20;;;2.10;;
23290;SDS011;11814;44.686;10.842;2023-12-22T04:10:12;3.03;;;1.70;;
23290;SDS011;11814;44.686;10.842;2023-12-22T04:12:37;2.53;;;1.83;;
23290;SDS011;11814;44.686;10.842;2023-12-22T04:15:03;7.47;;;1.40;;
23290;SDS011;11814;44.686;10.842;2023-12-22T04:17:29;2.55;;;1.13;;
23290;SDS011;11814;44.686;10.842;2023-12-22T04:19:55;3.17;;;1.08;;
23290;SDS011;11814;44.686;10.842;2023-12-22T04:22:20;2.25;;;1.13;;
23290;SDS011;11814;44.686;10.842;2023-12-22T04:24:48;1.60;;;1.00;;
23290;SDS011;11814;44.686;10.842;2023-12-22T04:27:14;1.35;;;0.85;;
23290;SDS011;11814;44.686;10.842;2023-12-22T04:29:39;3.22;;;0.88;;
23290;SDS011;11814;44.686;10.842;2023-12-22T04:32:05;2.10;;;0.93;;
23290;SDS011;11814;44.686;10.842;2023-12-22T04:34:30;2.85;;;0.85;;
23290;SDS011;11814;44.686;10.842;2023-12-22T04:36:56;1.48;;;1.02;;
23290;SDS011;11814;44.686;10.842;2023-12-22T04:39:21;2.40;;;1.17;;
23290;SDS011;11814;44.686;10.842;2023-12-22T04:41:47;3.08;;;1.02;;
23290;SDS011;11814;44.686;10.842;2023-12-22T04:44:13;2.80;;;1.00;;
23290;SDS011;11814;44.686;10.842;2023-12-22T04:46:38;2.38;;;1.02;;
23290;SDS011;11814;44.686;10.842;2023-12-22T04:49:04;1.52;;;1.00;;
23290;SDS011;11814;44.686;10.842;2023-12-22T04:51:29;2.00;;;0.80;;
23290;SDS011;11814;44.686;10.842;2023-12-22T04:53:55;2.45;;;0.75;;
23290;SDS011;11814;44.686;10.842;2023-12-22T04:56:20;2.08;;;0.90;;
23290;SDS011;11814;44.686;10.842;2023-12-22T04:58:46;3.47;;;0.90;;
23290;SDS011;11814;44.686;10.842;2023-12-22T05:01:12;1.63;;;1.00;;
23290;SDS011;11814;44.686;10.842;2023-12-22T05:03:38;1.85;;;1.00;;
23290;SDS011;11814;44.686;10.842;2023-12-22T05:06:03;1.98;;;0.80;;
23290;SDS011;11814;44.686;10.842;2023-12-22T05:08:29;3.03;;;1.00;;
23290;SDS011;11814;44.686;10.842;2023-12-22T05:10:54;2.28;;;0.90;;
23290;SDS011;11814;44.686;10.842;2023-12-22T05:13:20;1.60;;;0.85;;
23290;SDS011;11814;44.686;10.842;2023-12-22T05:15:46;3.03;;;1.00;;
23290;SDS011;11814;44.686;10.842;2023-12-22T05:18:11;1.77;;;0.80;;
23290;SDS011;11814;44.686;10.842;2023-12-22T05:20:37;2.95;;;0.90;;
23290;SDS011;11814;44.686;10.842;2023-12-22T05:23:02;4.88;;;0.80;;
23290;SDS011;11814;44.686;10.842;2023-12-22T05:25:28;2.90;;;0.80;;
23290;SDS011;11814;44.686;10.842;2023-12-22T05:27:54;3.15;;;1.10;;
23290;SDS011;11814;44.686;10.842;2023-12-22T05:30:19;2.65;;;0.90;;
23290;SDS011;11814;44.686;10.842;2023-12-22T05:32:45;2.13;;;0.80;;
23290;SDS011;11814;44.686;10.842;2023-12-22T05:35:10;2.75;;;0.77;;
23290;SDS011;11814;44.686;10.842;2023-12-22T05:37:36;2.67;;;1.08;;
23290;SDS011;11814;44.686;10.842;2023-12-22T05:40:02;1.63;;;0.80;;
23290;SDS011;11814;44.686;10.842;2023-12-22T05:42:28;1.58;;;0.73;;
23290;SDS011;11814;44.686;10.842;2023-12-22T05:44:53;4.10;;;0.85;;
23290;SDS011;11814;44.686;10.842;2023-12-22T05:47:19;4.60;;;0.77;;
23290;SDS011;11814;44.686;10.842;2023-12-22T05:49:45;3.65;;;1.05;;
23290;SDS011;11814;44.686;10.842;2023-12-22T05:52:11;2.00;;;0.75;;
23290;SDS011;11814;44.686;10.842;2023-12-22T05:54:37;5.10;;;1.10;;
23290;SDS011;11814;44.686;10.842;2023-12-22T05:57:03;1.80;;;0.85;;
23290;SDS011;11814;44.686;10.842;2023-12-22T05:59:31;4.47;;;1.08;;
23290;SDS011;11814;44.686;10.842;2023-12-22T06:01:57;3.95;;;0.82;;
23290;SDS011;11814;44.686;10.842;2023-12-22T06:04:24;2.50;;;0.80;;
23290;SDS011;11814;44.686;10.842;2023-12-22T06:06:50;4.25;;;0.80;;
23290;SDS011;11814;44.686;10.842;2023-12-22T06:09:16;2.78;;;1.02;;
23290;SDS011;11814;44.686;10.842;2023-12-22T06:11:43;5.97;;;1.50;;
23290;SDS011;11814;44.686;10.842;2023-12-22T06:14:10;2.70;;;1.10;;
23290;SDS011;11814;44.686;10.842;2023-12-22T06:16:35;3.20;;;1.10;;
23290;SDS011;11814;44.686;10.842;2023-12-22T06:19:01;3.50;;;1.15;;
23290;SDS011;11814;44.686;10.842;2023-12-22T06:21:27;4.80;;;0.82;;
23290;SDS011;11814;44.686;10.842;2023-12-22T06:23:52;5.75;;;1.00;;
23290;SDS011;11814;44.686;10.842;2023-12-22T06:26:18;3.35;;;1.00;;
23290;SDS011;11814;44.686;10.842;2023-12-22T06:28:44;4.55;;;0.95;;
23290;SDS011;11814;44.686;10.842;2023-12-22T06:31:19;2.33;;;0.90;;
23290;SDS011;11814;44.686;10.842;2023-12-22T06:33:46;3.40;;;1.00;;
23290;SDS011;11814;44.686;10.842;2023-12-22T06:36:21;2.83;;;1.00;;
23290;SDS011;11814;44.686;10.842;2023-12-22T06:38:52;2.88;;;0.75;;
23290;SDS011;11814;44.686;10.842;2023-12-22T06:41:20;2.10;;;0.90;;
23290;SDS011;11814;44.686;10.842;2023-12-22T06:43:50;3.75;;;0.90;;
23290;SDS011;11814;44.686;10.842;2023-12-22T06:46:17;6.68;;;1.00;;
23290;SDS011;11814;44.686;10.842;2023-12-22T06:48:43;5.10;;;0.98;;
23290;SDS011;11814;44.686;10.842;2023-12-22T06:51:22;7.45;;;0.80;;
23290;SDS011;11814;44.686;10.842;2023-12-22T06:53:49;2.42;;;0.80;;
23290;SDS011;11814;44.686;10.842;2023-12-22T06:56:18;2.92;;;1.02;;
23290;SDS011;11814;44.686;10.842;2023-12-22T06:58:47;2.80;;;1.15;;
23290;SDS011;11814;44.686;10.842;2023-12-22T07:01:27;3.60;;;0.85;;
23290;SDS011;11814;44.686;10.842;2023-12-22T07:03:54;5.70;;;1.00;;
23290;SDS011;11814;44.686;10.842;2023-12-22T07:06:20;2.70;;;1.02;;
23290;SDS011;11814;44.686;10.842;2023-12-22T07:11:45;4.00;;;0.80;;
23290;SDS011;11814;44.686;10.842;2023-12-22T07:14:13;6.65;;;1.15;;
23290;SDS011;11814;44.686;10.842;2023-12-22T07:16:40;6.40;;;0.98;;
23290;SDS011;11814;44.686;10.842;2023-12-22T07:19:07;5.18;;;1.17;;
23290;SDS011;11814;44.686;10.842;2023-12-22T07:21:33;2.35;;;0.80;;
23290;SDS011;11814;44.686;10.842;2023-12-22T07:23:58;4.13;;;0.90;;
23290;SDS011;11814;44.686;10.842;2023-12-22T07:26:25;3.13;;;1.10;;
23290;SDS011;11814;44.686;10.842;2023-12-22T07:28:54;6.78;;;0.88;;
23290;SDS011;11814;44.686;10.842;2023-12-22T07:31:19;3.60;;;0.80;;
23290;SDS011;11814;44.686;10.842;2023-12-22T07:33:45;3.50;;;0.93;;
23290;SDS011;11814;44.686;10.842;2023-12-22T07:36:11;2.83;;;0.90;;
23290;SDS011;11814;44.686;10.842;2023-12-22T07:38:37;3.33;;;0.80;;
23290;SDS011;11814;44.686;10.842;2023-12-22T07:41:06;7.05;;;1.00;;
23290;SDS011;11814;44.686;10.842;2023-12-22T07:43:31;5.95;;;0.80;;
23290;SDS011;11814;44.686;10.842;2023-12-22T07:45:57;4.60;;;0.70;;
23290;SDS011;11814;44.686;10.842;2023-12-22T07:48:23;6.05;;;0.85;;
23290;SDS011;11814;44.686;10.842;2023-12-22T07:50:51;5.95;;;0.88;;
23290;SDS011;11814;44.686;10.842;2023-12-22T07:53:17;2.13;;;0.70;;
23290;SDS011;11814;44.686;10.842;2023-12-22T07:55:43;4.20;;;0.70;;
23290;SDS011;11814;44.686;10.842;2023-12-22T07:58:09;8.57;;;0.60;;
23290;SDS011;11814;44.686;10.842;2023-12-22T08:00:34;3.22;;;0.50;;
23290;SDS011;11814;44.686;10.842;2023-12-22T08:03:00;3.63;;;0.60;;
23290;SDS011;11814;44.686;10.842;2023-12-22T08:05:26;2.95;;;0.60;;
23290;SDS011;11814;44.686;10.842;2023-12-22T08:07:52;3.05;;;0.50;;
23290;SDS011;11814;44.686;10.842;2023-12-22T08:10:17;6.45;;;0.68;;
23290;SDS011;11814;44.686;10.842;2023-12-22T08:12:44;2.28;;;0.50;;
23290;SDS011;11814;44.686;10.842;2023-12-22T08:15:09;2.78;;;0.30;;
23290;SDS011;11814;44.686;10.842;2023-12-22T08:17:36;4.55;;;0.40;;
23290;SDS011;11814;44.686;10.842;2023-12-22T08:20:03;4.55;;;0.60;;
23290;SDS011;11814;44.686;10.842;2023-12-22T08:22:29;1.20;;;0.30;;
23290;SDS011;11814;44.686;10.842;2023-12-22T08:24:55;3.10;;;0.45;;
23290;SDS011;11814;44.686;10.842;2023-12-22T08:27:20;3.03;;;0.75;;
23290;SDS011;11814;44.686;10.842;2023-12-22T08:29:46;5.03;;;0.57;;
23290;SDS011;11814;44.686;10.842;2023-12-22T08:32:11;2.33;;;0.55;;
23290;SDS011;11814;44.686;10.842;2023-12-22T08:34:37;1.77;;;0.50;;
23290;SDS011;11814;44.686;10.842;2023-12-22T08:37:03;4.00;;;0.35;;
23290;SDS011;11814;44.686;10.842;2023-12-22T08:39:28;2.30;;;0.50;;
23290;SDS011;11814;44.686;10.842;2023-12-22T08:41:54;4.05;;;0.65;;
23290;SDS011;11814;44.686;10.842;2023-12-22T08:44:20;5.57;;;0.52;;
23290;SDS011;11814;44.686;10.842;2023-12-22T08:46:45;1.30;;;0.30;;
23290;SDS011;11814;44.686;10.842;2023-12-22T08:49:11;1.23;;;0.40;;
23290;SDS011;11814;44.686;10.842;2023-12-22T08:51:37;4.57;;;0.45;;
23290;SDS011;11814;44.686;10.842;2023-12-22T08:54:02;3.85;;;0.38;;
23290;SDS011;11814;44.686;10.842;2023-12-22T08:56:31;1.95;;;0.20;;
23290;SDS011;11814;44.686;10.842;2023-12-22T08:58:57;4.25;;;0.47;;
23290;SDS011;11814;44.686;10.842;2023-12-22T09:01:25;3.67;;;0.60;;
23290;SDS011;11814;44.686;10.842;2023-12-22T09:03:51;3.83;;;0.52;;
23290;SDS011;11814;44.686;10.842;2023-12-22T09:06:18;1.80;;;0.30;;
23290;SDS011;11814;44.686;10.842;2023-12-22T09:08:48;1.52;;;0.20;;
23290;SDS011;11814;44.686;10.842;2023-12-22T09:11:18;0.93;;;0.20;;
23290;SDS011;11814;44.686;10.842;2023-12-22T09:13:45;2.53;;;0.50;;
23290;SDS011;11814;44.686;10.842;2023-12-22T09:16:11;0.98;;;0.30;;
23290;SDS011;11814;44.686;10.842;2023-12-22T09:18:40;0.70;;;0.20;;
23290;SDS011;11814;44.686;10.842;2023-12-22T09:21:06;2.40;;;0.20;;
23290;SDS011;11814;44.686;10.842;2023-12-22T09:23:32;3.47;;;0.38;;
23290;SDS011;11814;44.686;10.842;2023-12-22T09:25:57;3.72;;;0.32;;
23290;SDS011;11814;44.686;10.842;2023-12-22T09:28:23;2.88;;;0.47;;
23290;SDS011;11814;44.686;10.842;2023-12-22T09:30:49;1.70;;;0.20;;
23290;SDS011;11814;44.686;10.842;2023-12-22T09:33:15;5.75;;;0.30;;
23290;SDS011;11814;44.686;10.842;2023-12-22T09:35:40;1.02;;;0.20;;
23290;SDS011;11814;44.686;10.842;2023-12-22T09:38:07;1.42;;;0.20;;
23290;SDS011;11814;44.686;10.842;2023-12-22T09:40:35;1.52;;;0.15;;
23290;SDS011;11814;44.686;10.842;2023-12-22T09:43:02;2.83;;;0.40;;
23290;SDS011;11814;44.686;10.842;2023-12-22T09:45:30;0.85;;;0.40;;
23290;SDS011;11814;44.686;10.842;2023-12-22T09:47:58;2.95;;;0.32;;
23290;SDS011;11814;44.686;10.842;2023-12-22T09:50:28;3.28;;;0.20;;
23290;SDS011;11814;44.686;10.842;2023-12-22T09:52:55;2.33;;;0.30;;
23290;SDS011;11814;44.686;10.842;2023-12-22T09:55:21;4.25;;;0.20;;
23290;SDS011;11814;44.686;10.842;2023-12-22T09:57:47;2.58;;;0.20;;
23290;SDS011;11814;44.686;10.842;2023-12-22T10:00:17;1.95;;;0.20;;
23290;SDS011;11814;44.686;10.842;2023-12-22T10:02:43;2.05;;;0.10;;
23290;SDS011;11814;44.686;10.842;2023-12-22T10:05:10;5.18;;;0.30;;
23290;SDS011;11814;44.686;10.842;2023-12-22T10:07:38;2.03;;;0.20;;
23290;SDS011;11814;44.686;10.842;2023-12-22T10:10:05;3.35;;;0.10;;
23290;SDS011;11814;44.686;10.842;2023-12-22T10:12:33;5.65;;;0.30;;
23290;SDS011;11814;44.686;10.842;2023-12-22T10:14:59;3.03;;;0.20;;
23290;SDS011;11814;44.686;10.842;2023-12-22T10:17:25;2.75;;;0.28;;
23290;SDS011;11814;44.686;10.842;2023-12-22T10:19:52;2.22;;;0.20;;
23290;SDS011;11814;44.686;10.842;2023-12-22T10:22:17;6.35;;;0.25;;
23290;SDS011;11814;44.686;10.842;2023-12-22T10:27:13;4.00;;;0.20;;
23290;SDS011;11814;44.686;10.842;2023-12-22T10:29:40;2.10;;;0.20;;
23290;SDS011;11814;44.686;10.842;2023-12-22T10:32:06;7.43;;;0.43;;
23290;SDS011;11814;44.686;10.842;2023-12-22T10:34:32;4.20;;;0.15;;
23290;SDS011;11814;44.686;10.842;2023-12-22T10:36:58;3.75;;;0.10;;
23290;SDS011;11814;44.686;10.842;2023-12-22T10:39:28;2.10;;;0.20;;
23290;SDS011;11814;44.686;10.842;2023-12-22T10:41:54;2.40;;;0.20;;
23290;SDS011;11814;44.686;10.842;2023-12-22T10:44:24;3.60;;;0.10;;
23290;SDS011;11814;44.686;10.842;2023-12-22T10:46:50;3.22;;;0.20;;
23290;SDS011;11814;44.686;10.842;2023-12-22T10:49:16;5.35;;;0.20;;
23290;SDS011;11814;44.686;10.842;2023-12-22T10:51:42;5.15;;;0.20;;
23290;SDS011;11814;44.686;10.842;2023-12-22T10:54:08;3.03;;;0.20;;
23290;SDS011;11814;44.686;10.842;2023-12-22T10:56:34;3.50;;;0.45;;
23290;SDS011;11814;44.686;10.842;2023-12-22T10:58:59;2.53;;;0.30;;
23290;SDS011;11814;44.686;10.842;2023-12-22T11:01:29;5.13;;;0.10;;
23290;SDS011;11814;44.686;10.842;2023-12-22T11:03:57;2.15;;;0.10;;
23290;SDS011;11814;44.686;10.842;2023-12-22T11:06:26;3.00;;;0.20;;
23290;SDS011;11814;44.686;10.842;2023-12-22T11:08:54;2.53;;;0.10;;
23290;SDS011;11814;44.686;10.842;2023-12-22T11:13:54;0.98;;;0.00;;
23290;SDS011;11814;44.686;10.842;2023-12-22T11:16:22;3.60;;;0.15;;
23290;SDS011;11814;44.686;10.842;2023-12-22T11:18:49;1.92;;;0.10;;
23290;SDS011;11814;44.686;10.842;2023-12-22T11:21:19;1.80;;;0.15;;
23290;SDS011;11814;44.686;10.842;2023-12-22T11:23:46;2.63;;;0.22;;
23290;SDS011;11814;44.686;10.842;2023-12-22T11:26:14;1.55;;;0.28;;
23290;SDS011;11814;44.686;10.842;2023-12-22T11:28:41;4.80;;;0.20;;
23290;SDS011;11814;44.686;10.842;2023-12-22T11:31:10;2.80;;;0.10;;
23290;SDS011;11814;44.686;10.842;2023-12-22T11:33:36;2.97;;;0.10;;
23290;SDS011;11814;44.686;10.842;2023-12-22T11:36:04;0.98;;;0.10;;
23290;SDS011;11814;44.686;10.842;2023-12-22T11:38:31;5.22;;;0.10;;
23290;SDS011;11814;44.686;10.842;2023-12-22T11:40:57;1.30;;;0.08;;
23290;SDS011;11814;44.686;10.842;2023-12-22T11:43:24;0.55;;;0.03;;
23290;SDS011;11814;44.686;10.842;2023-12-22T11:45:50;1.98;;;0.10;;
23290;SDS011;11814;44.686;10.842;2023-12-22T11:48:16;1.17;;;0.00;;
23290;SDS011;11814;44.686;10.842;2023-12-22T11:50:42;1.17;;;0.10;;
23290;SDS011;11814;44.686;10.842;2023-12-22T11:53:18;3.25;;;0.35;;
23290;SDS011;11814;44.686;10.842;2023-12-22T11:58:45;4.05;;;0.10;;
23290;SDS011;11814;44.686;10.842;2023-12-22T12:01:20;1.90;;;0.10;;
23290;SDS011;11814;44.686;10.842;2023-12-22T12:03:52;1.35;;;0.20;;
23290;SDS011;11814;44.686;10.842;2023-12-22T12:08:58;4.30;;;0.08;;
23290;SDS011;11814;44.686;10.842;2023-12-22T12:14:21;3.50;;;0.10;;
23290;SDS011;11814;44.686;10.842;2023-12-22T12:16:48;1.40;;;0.20;;
23290;SDS011;11814;44.686;10.842;2023-12-22T12:19:14;4.53;;;0.10;;
23290;SDS011;11814;44.686;10.842;2023-12-22T12:21:40;1.30;;;0.28;;
23290;SDS011;11814;44.686;10.842;2023-12-22T12:24:06;1.75;;;0.17;;
23290;SDS011;11814;44.686;10.842;2023-12-22T12:26:34;3.22;;;0.13;;
23290;SDS011;11814;44.686;10.842;2023-12-22T12:29:01;0.85;;;0.10;;
23290;SDS011;11814;44.686;10.842;2023-12-22T12:31:37;1.88;;;0.05;;
23290;SDS011;11814;44.686;10.842;2023-12-22T12:34:04;1.23;;;0.20;;
23290;SDS011;11814;44.686;10.842;2023-12-22T12:36:30;1.25;;;0.10;;
23290;SDS011;11814;44.686;10.842;2023-12-22T12:39:01;2.97;;;0.10;;
23290;SDS011;11814;44.686;10.842;2023-12-22T12:41:32;1.83;;;0.10;;
23290;SDS011;11814;44.686;10.842;2023-12-22T12:44:06;3.58;;;0.20;;
23290;SDS011;11814;44.686;10.842;2023-12-22T12:46:35;0.60;;;0.10;;
23290;SDS011;11814;44.686;10.842;2023-12-22T12:49:08;0.50;;;0.10;;
23290;SDS011;11814;44.686;10.842;2023-12-22T12:51:41;1.33;;;0.10;;
23290;SDS011;11814;44.686;10.842;2023-12-22T12:54:08;0.43;;;0.08;;
23290;SDS011;11814;44.686;10.842;2023-12-22T12:56:44;0.20;;;0.00;;
23290;SDS011;11814;44.686;10.842;2023-12-22T12:59:13;2.78;;;0.43;;
23290;SDS011;11814;44.686;10.842;2023-12-22T13:01:43;1.13;;;0.28;;
23290;SDS011;11814;44.686;10.842;2023-12-22T13:04:13;4.90;;;0.20;;
23290;SDS011;11814;44.686;10.842;2023-12-22T13:06:48;3.55;;;0.15;;
23290;SDS011;11814;44.686;10.842;2023-12-22T13:09:15;0.43;;;0.10;;
23290;SDS011;11814;44.686;10.842;2023-12-22T13:11:42;1.60;;;0.17;;
23290;SDS011;11814;44.686;10.842;2023-12-22T13:14:11;2.72;;;0.10;;
23290;SDS011;11814;44.686;10.842;2023-12-22T13:16:37;2.42;;;0.10;;
23290;SDS011;11814;44.686;10.842;2023-12-22T13:19:04;2.15;;;0.10;;
23290;SDS011;11814;44.686;10.842;2023-12-22T13:21:30;1.05;;;0.10;;
23290;SDS011;11814;44.686;10.842;2023-12-22T13:24:11;2.85;;;0.17;;
23290;SDS011;11814;44.686;10.842;2023-12-22T13:26:39;1.48;;;0.10;;
23290;SDS011;11814;44.686;10.842;2023-12-22T13:29:05;2.53;;;0.20;;
23290;SDS011;11814;44.686;10.842;2023-12-22T13:31:31;0.55;;;0.10;;
23290;SDS011;11814;44.686;10.842;2023-12-22T13:33:58;0.47;;;0.10;;
23290;SDS011;11814;44.686;10.842;2023-12-22T13:36:27;2.45;;;0.20;;
23290;SDS011;11814;44.686;10.842;2023-12-22T13:38:53;1.35;;;0.20;;
23290;SDS011;11814;44.686;10.842;2023-12-22T13:41:19;6.35;;;0.20;;
23290;SDS011;11814;44.686;10.842;2023-12-22T13:43:45;1.30;;;0.17;;
23290;SDS011;11814;44.686;10.842;2023-12-22T13:46:14;0.50;;;0.10;;
23290;SDS011;11814;44.686;10.842;2023-12-22T13:48:40;2.92;;;0.20;;
23290;SDS011;11814;44.686;10.842;2023-12-22T13:51:06;0.20;;;0.20;;
23290;SDS011;11814;44.686;10.842;2023-12-22T13:53:31;3.70;;;0.13;;
23290;SDS011;11814;44.686;10.842;2023-12-22T13:56:00;1.70;;;0.40;;
23290;SDS011;11814;44.686;10.842;2023-12-22T13:58:26;3.20;;;0.17;;
23290;SDS011;11814;44.686;10.842;2023-12-22T14:00:52;1.02;;;0.13;;
23290;SDS011;11814;44.686;10.842;2023-12-22T14:03:19;2.80;;;0.20;;
23290;SDS011;11814;44.686;10.842;2023-12-22T14:05:54;0.40;;;0.10;;
23290;SDS011;11814;44.686;10.842;2023-12-22T14:08:20;0.50;;;0.10;;
23290;SDS011;11814;44.686;10.842;2023-12-22T14:10:46;0.57;;;0.20;;
23290;SDS011;11814;44.686;10.842;2023-12-22T14:13:16;0.20;;;0.10;;
23290;SDS011;11814;44.686;10.842;2023-12-22T14:15:42;3.70;;;0.30;;
23290;SDS011;11814;44.686;10.842;2023-12-22T14:18:11;0.32;;;0.10;;
23290;SDS011;11814;44.686;10.842;2023-12-22T14:20:37;0.47;;;0.20;;
23290;SDS011;11814;44.686;10.842;2023-12-22T14:23:02;0.20;;;0.10;;
23290;SDS011;11814;44.686;10.842;2023-12-22T14:25:28;1.95;;;0.28;;
23290;SDS011;11814;44.686;10.842;2023-12-22T14:27:55;2.67;;;0.28;;
23290;SDS011;11814;44.686;10.842;2023-12-22T14:30:25;1.23;;;0.30;;
23290;SDS011;11814;44.686;10.842;2023-12-22T14:32:51;1.88;;;0.90;;
23290;SDS011;11814;44.686;10.842;2023-12-22T14:35:17;7.18;;;3.28;;
23290;SDS011;11814;44.686;10.842;2023-12-22T14:37:42;5.38;;;2.40;;
23290;SDS011;11814;44.686;10.842;2023-12-22T14:40:08;8.35;;;3.53;;
23290;SDS011;11814;44.686;10.842;2023-12-22T14:42:34;5.15;;;1.63;;
23290;SDS011;11814;44.686;10.842;2023-12-22T14:45:00;4.80;;;2.20;;